Time;durP1;ratioP1;P1;durP2;ratioP2;P2;SDS_P1;SDS_P2;PMS_P1;PMS_P2;Temp;Humidity;BMP_temperature;BMP_pressure;BME280_temperature;BME280_humidity;BME280_pressure;Samples;Min_cycle;Max_cycle;Signal;HPM_P1;HPM_P2
2023/11/13 00:01:51;;;;;;;1.70;1.60;;;9.90;99.90;;;;;;5099246;28;20242;-64
2023/11/13 00:04:20;;;;;;;1.50;1.40;;;9.90;99.90;;;;;;5103260;28;20629;-64
2023/11/13 00:06:47;;;;;;;1.90;1.70;;;9.90;99.90;;;;;;5093554;28;20689;-64
2023/11/13 00:09:14;;;;;;;1.60;1.50;;;9.90;99.90;;;;;;5099161;28;20276;-64
2023/11/13 00:11:41;;;;;;;1.40;1.30;;;9.90;99.90;;;;;;5097577;28;20211;-63
2023/11/13 00:14:09;;;;;;;1.50;1.37;;;9.90;99.90;;;;;;5098617;28;20205;-64
2023/11/13 00:16:36;;;;;;;1.50;1.40;;;9.90;99.90;;;;;;5096127;28;20278;-63
2023/11/13 00:19:03;;;;;;;2.63;1.57;;;9.80;99.90;;;;;;5098744;28;20202;-64
2023/11/13 00:21:32;;;;;;;1.40;1.30;;;9.80;99.90;;;;;;5096410;28;20212;-63
2023/11/13 00:23:59;;;;;;;1.30;1.30;;;9.80;99.90;;;;;;5097252;28;20202;-63
2023/11/13 00:26:27;;;;;;;1.50;1.40;;;9.80;99.90;;;;;;5097881;28;20406;-63
2023/11/13 00:28:55;;;;;;;1.70;1.60;;;9.80;99.90;;;;;;5100782;28;20224;-64
2023/11/13 00:31:22;;;;;;;1.53;1.43;;;9.80;99.90;;;;;;5093912;28;20207;-64
2023/11/13 00:33:49;;;;;;;1.53;1.40;;;9.80;99.90;;;;;;5100248;28;20209;-63
2023/11/13 00:36:17;;;;;;;1.50;1.40;;;9.70;99.90;;;;;;5097639;28;20246;-64
2023/11/13 00:38:45;;;;;;;1.37;1.20;;;9.70;99.90;;;;;;5093280;28;20891;-64
2023/11/13 00:41:13;;;;;;;1.20;1.20;;;9.80;99.90;;;;;;5094230;28;20234;-64
2023/11/13 00:43:41;;;;;;;1.83;1.43;;;9.70;99.90;;;;;;5095815;28;20231;-64
2023/11/13 00:46:08;;;;;;;1.30;1.20;;;9.80;99.90;;;;;;5097400;28;20198;-64
2023/11/13 00:48:37;;;;;;;2.57;1.00;;;9.80;99.90;;;;;;5096510;28;20205;-64
2023/11/13 00:51:05;;;;;;;0.90;0.90;;;9.80;99.90;;;;;;5097048;28;20275;-64
2023/11/13 00:53:36;;;;;;;0.90;0.90;;;9.80;99.90;;;;;;5096297;28;20280;-63
2023/11/13 00:56:05;;;;;;;1.27;1.10;;;9.80;99.90;;;;;;5096429;28;20203;-63
2023/11/13 00:58:34;;;;;;;1.50;1.37;;;9.70;99.90;;;;;;5104771;28;20687;-64
2023/11/13 01:01:05;;;;;;;1.30;1.20;;;9.80;99.90;;;;;;5103912;28;20224;-64
2023/11/13 01:03:33;;;;;;;1.43;1.30;;;9.80;99.90;;;;;;5103559;28;20211;-63
2023/11/13 01:06:00;;;;;;;1.30;1.20;;;9.80;99.90;;;;;;5090024;28;20204;-63
2023/11/13 01:08:27;;;;;;;1.57;1.37;;;9.80;99.90;;;;;;5098270;28;20220;-64
2023/11/13 01:10:54;;;;;;;1.60;1.50;;;9.80;99.90;;;;;;5096534;28;20195;-62
2023/11/13 01:13:23;;;;;;;1.30;1.20;;;9.80;99.90;;;;;;5097584;28;21045;-63
2023/11/13 01:15:52;;;;;;;3.00;1.70;;;9.80;99.90;;;;;;5096408;28;20215;-63
2023/11/13 01:18:20;;;;;;;1.93;1.50;;;9.80;99.90;;;;;;5097891;28;20199;-64
2023/11/13 01:20:47;;;;;;;1.70;1.60;;;9.80;99.90;;;;;;5095219;28;20198;-64
2023/11/13 01:23:15;;;;;;;2.20;1.73;;;9.80;99.90;;;;;;5096659;28;20576;-64
2023/11/13 01:25:42;;;;;;;1.47;1.37;;;9.80;99.90;;;;;;5092276;28;20231;-62
2023/11/13 01:28:09;;;;;;;1.87;1.33;;;9.70;99.90;;;;;;5093210;28;20649;-62
2023/11/13 01:30:38;;;;;;;1.53;1.13;;;9.70;99.90;;;;;;5099984;28;20203;-64
2023/11/13 01:33:06;;;;;;;1.90;1.27;;;9.80;99.90;;;;;;5110339;28;20617;-65
2023/11/13 01:35:33;;;;;;;1.30;1.20;;;9.80;99.90;;;;;;5090531;28;20212;-63
2023/11/13 01:38:00;;;;;;;1.77;1.00;;;9.80;99.90;;;;;;5087155;28;20200;-63
2023/11/13 01:40:28;;;;;;;1.10;1.00;;;9.90;99.90;;;;;;5095535;28;20601;-63
2023/11/13 01:42:55;;;;;;;1.00;1.00;;;9.90;99.90;;;;;;5095664;28;20245;-63
2023/11/13 01:45:22;;;;;;;0.83;0.83;;;9.90;99.90;;;;;;5093456;28;20212;-64
2023/11/13 01:47:51;;;;;;;1.00;0.90;;;9.90;99.90;;;;;;5093721;28;20202;-65
2023/11/13 01:50:19;;;;;;;1.20;1.10;;;10.00;99.90;;;;;;5093687;28;20298;-64
2023/11/13 01:52:46;;;;;;;0.90;0.90;;;10.00;99.90;;;;;;5096918;28;20226;-64
2023/11/13 01:55:13;;;;;;;1.00;1.00;;;10.00;99.90;;;;;;5094093;28;22436;-64
2023/11/13 01:57:43;;;;;;;0.70;0.70;;;10.00;99.90;;;;;;5095573;28;20253;-63
2023/11/13 02:00:11;;;;;;;1.10;1.00;;;10.10;99.90;;;;;;5093695;28;20199;-64
2023/11/13 02:02:41;;;;;;;1.20;1.10;;;10.00;99.90;;;;;;5548245;22;21170;-64
2023/11/13 02:05:10;;;;;;;1.00;0.90;;;10.00;99.90;;;;;;5040720;28;20205;-64
2023/11/13 02:07:37;;;;;;;0.90;0.90;;;10.00;99.90;;;;;;5050740;28;20196;-65
2023/11/13 02:10:07;;;;;;;1.10;1.00;;;9.90;99.90;;;;;;5032918;28;20580;-64
2023/11/13 02:12:35;;;;;;;1.10;1.10;;;9.90;99.90;;;;;;5050293;28;20679;-63
2023/11/13 02:15:03;;;;;;;1.00;1.00;;;9.80;99.90;;;;;;5050694;28;20206;-64
2023/11/13 02:17:30;;;;;;;1.30;1.20;;;9.80;99.90;;;;;;5047825;28;20248;-65
2023/11/13 02:19:58;;;;;;;1.37;1.27;;;9.80;99.90;;;;;;5051279;28;20205;-64
2023/11/13 02:22:29;;;;;;;2.70;1.43;;;9.80;99.90;;;;;;5032238;28;20217;-64
2023/11/13 02:24:57;;;;;;;1.07;1.07;;;9.70;99.90;;;;;;5033093;28;20202;-64
2023/11/13 02:27:25;;;;;;;1.50;1.40;;;9.70;99.90;;;;;;5031793;28;20197;-64
2023/11/13 02:29:52;;;;;;;1.30;1.30;;;9.70;99.90;;;;;;5051189;28;20212;-65
2023/11/13 02:32:21;;;;;;;0.87;0.87;;;9.70;99.90;;;;;;5030790;28;20255;-64
2023/11/13 02:34:48;;;;;;;1.10;1.00;;;9.70;99.90;;;;;;5046578;28;20202;-63
2023/11/13 02:37:16;;;;;;;0.90;0.90;;;9.70;99.90;;;;;;5045796;28;20201;-64
2023/11/13 02:39:43;;;;;;;1.00;1.00;;;9.80;99.90;;;;;;5050904;28;20714;-64
2023/11/13 02:42:12;;;;;;;1.00;1.00;;;9.80;99.90;;;;;;5047549;28;20728;-64
2023/11/13 02:44:39;;;;;;;1.23;1.23;;;9.80;99.90;;;;;;5055771;28;20273;-64
2023/11/13 02:47:06;;;;;;;1.03;1.03;;;9.80;99.90;;;;;;5050809;28;20225;-64
2023/11/13 02:49:33;;;;;;;1.80;1.13;;;9.70;99.90;;;;;;5033347;28;20223;-63
2023/11/13 02:52:00;;;;;;;1.03;1.00;;;9.80;99.90;;;;;;5049816;28;20206;-64
2023/11/13 02:54:27;;;;;;;1.10;1.10;;;9.80;99.90;;;;;;5050948;28;20212;-64
2023/11/13 02:56:55;;;;;;;1.20;1.13;;;9.80;99.90;;;;;;5031602;28;20197;-64
2023/11/13 02:59:23;;;;;;;1.20;1.00;;;9.80;99.90;;;;;;5032855;28;20240;-64
2023/11/13 03:01:50;;;;;;;1.03;0.97;;;9.80;99.90;;;;;;5048855;28;20192;-64
2023/11/13 03:04:17;;;;;;;1.20;1.10;;;9.80;99.90;;;;;;5049250;28;20306;-64
2023/11/13 03:06:44;;;;;;;1.03;0.80;;;9.80;99.90;;;;;;5049083;28;20604;-63
2023/11/13 03:09:11;;;;;;;0.80;0.80;;;9.80;99.90;;;;;;5031348;28;20204;-64
2023/11/13 03:11:38;;;;;;;1.00;1.00;;;9.80;99.90;;;;;;5049227;28;20248;-65
2023/11/13 03:14:06;;;;;;;0.80;0.80;;;9.80;99.90;;;;;;5050138;28;20198;-64
2023/11/13 03:16:34;;;;;;;0.97;0.97;;;9.60;99.90;;;;;;5031392;28;20217;-64
2023/11/13 03:19:02;;;;;;;0.87;0.87;;;9.80;99.90;;;;;;5049159;28;20543;-64
2023/11/13 03:21:29;;;;;;;0.70;0.70;;;9.90;99.90;;;;;;5049560;28;20204;-64
2023/11/13 03:23:56;;;;;;;0.70;0.70;;;9.90;99.90;;;;;;5049312;28;20510;-64
2023/11/13 03:26:28;;;;;;;0.80;0.80;;;9.80;99.90;;;;;;5049216;28;20554;-63
2023/11/13 03:28:55;;;;;;;0.80;0.80;;;9.80;99.90;;;;;;5031741;28;20609;-63
2023/11/13 03:31:22;;;;;;;0.80;0.80;;;9.80;99.90;;;;;;5048076;28;20227;-64
2023/11/13 03:33:51;;;;;;;0.90;0.90;;;9.90;99.90;;;;;;5048771;28;20205;-64
2023/11/13 03:36:18;;;;;;;0.67;0.67;;;9.90;99.90;;;;;;5049848;28;20217;-64
2023/11/13 03:38:45;;;;;;;0.87;0.87;;;9.90;99.90;;;;;;5045094;28;20195;-64
2023/11/13 03:41:12;;;;;;;0.90;0.90;;;9.80;99.90;;;;;;5049503;28;20195;-64
2023/11/13 03:43:40;;;;;;;0.70;0.70;;;9.80;99.90;;;;;;5043888;28;20681;-64
2023/11/13 03:46:08;;;;;;;0.80;0.80;;;9.80;99.90;;;;;;5049744;28;20258;-64
2023/11/13 03:48:35;;;;;;;0.70;0.70;;;9.80;99.90;;;;;;5048963;28;20598;-64
2023/11/13 03:51:04;;;;;;;0.77;0.77;;;9.80;99.90;;;;;;5049969;28;20247;-64
2023/11/13 03:53:32;;;;;;;0.80;0.80;;;9.80;99.90;;;;;;5048147;28;20193;-64
2023/11/13 03:55:59;;;;;;;0.80;0.80;;;9.90;99.90;;;;;;5049300;28;20204;-64
2023/11/13 03:58:26;;;;;;;0.70;0.70;;;9.90;99.90;;;;;;5049077;28;20205;-64
2023/11/13 04:00:53;;;;;;;0.70;0.70;;;9.90;99.90;;;;;;5031439;28;20592;-63
2023/11/13 04:03:20;;;;;;;0.80;0.80;;;9.80;99.90;;;;;;5024668;28;20242;-64
2023/11/13 04:05:48;;;;;;;0.80;0.80;;;9.80;99.90;;;;;;5018159;28;20196;-65
2023/11/13 04:08:16;;;;;;;1.40;0.83;;;9.80;99.90;;;;;;5023257;28;20653;-64
2023/11/13 04:10:44;;;;;;;0.70;0.70;;;9.80;99.90;;;;;;5020490;28;20191;-64
2023/11/13 04:13:13;;;;;;;0.73;0.73;;;9.80;99.90;;;;;;5022531;28;20286;-64
2023/11/13 04:15:40;;;;;;;0.80;0.80;;;9.80;99.90;;;;;;5024853;28;20196;-64
2023/11/13 04:18:07;;;;;;;0.80;0.80;;;9.80;99.90;;;;;;5024048;28;20559;-64
2023/11/13 04:20:34;;;;;;;0.83;0.83;;;9.80;99.90;;;;;;5015153;28;20207;-64
2023/11/13 04:23:01;;;;;;;0.73;0.73;;;9.80;99.90;;;;;;5020698;28;20222;-64
2023/11/13 04:25:30;;;;;;;0.97;0.97;;;9.80;99.90;;;;;;5026878;28;20671;-64
2023/11/13 04:27:58;;;;;;;0.70;0.70;;;9.80;99.90;;;;;;5019813;28;20238;-64
2023/11/13 04:30:25;;;;;;;0.87;0.87;;;9.80;99.90;;;;;;5015068;28;20210;-64
2023/11/13 04:32:52;;;;;;;0.80;0.80;;;9.80;99.90;;;;;;5008857;28;20559;-64
2023/11/13 04:35:19;;;;;;;0.70;0.70;;;9.80;99.90;;;;;;5014450;28;20205;-64
2023/11/13 04:37:46;;;;;;;0.90;0.90;;;9.90;99.90;;;;;;5014840;28;20212;-64
2023/11/13 04:40:14;;;;;;;1.30;1.20;;;9.90;99.90;;;;;;5014550;28;20669;-64
2023/11/13 04:42:46;;;;;;;0.90;0.90;;;10.10;99.90;;;;;;5013727;28;20195;-64
2023/11/13 04:45:13;;;;;;;0.70;0.70;;;10.00;99.90;;;;;;5012668;28;20199;-64
2023/11/13 04:47:40;;;;;;;0.80;0.80;;;10.00;99.90;;;;;;5011251;28;20198;-64
2023/11/13 04:50:08;;;;;;;1.13;1.00;;;10.00;99.90;;;;;;5027748;28;20208;-64
2023/11/13 04:52:35;;;;;;;0.90;0.90;;;9.90;99.90;;;;;;5011976;28;20222;-64
2023/11/13 04:55:02;;;;;;;0.77;0.63;;;10.00;99.90;;;;;;5013779;28;20252;-64
2023/11/13 04:57:29;;;;;;;0.80;0.80;;;10.00;99.90;;;;;;5012758;28;20391;-64
2023/11/13 04:59:58;;;;;;;2.30;1.20;;;9.90;99.90;;;;;;5015869;28;20209;-65
2023/11/13 05:02:25;;;;;;;1.10;1.00;;;9.90;99.90;;;;;;5016738;28;20299;-64
2023/11/13 05:04:52;;;;;;;0.80;0.80;;;9.90;99.90;;;;;;5033747;28;20222;-63
2023/11/13 05:07:19;;;;;;;0.90;0.90;;;9.90;99.90;;;;;;5027583;28;20211;-64
2023/11/13 05:09:46;;;;;;;1.20;1.20;;;9.90;99.90;;;;;;5051684;28;20729;-64
2023/11/13 05:12:13;;;;;;;1.53;1.33;;;9.80;99.90;;;;;;5051222;28;20217;-63
2023/11/13 05:14:41;;;;;;;1.00;0.90;;;9.80;99.90;;;;;;5051768;28;20225;-64
2023/11/13 05:17:11;;;;;;;1.27;1.17;;;9.80;99.90;;;;;;5050613;28;20205;-63
2023/11/13 05:19:38;;;;;;;0.87;0.87;;;9.80;99.90;;;;;;5052190;28;20385;-64
2023/11/13 05:22:08;;;;;;;0.90;0.90;;;9.80;99.90;;;;;;5051695;28;20201;-63
2023/11/13 05:24:35;;;;;;;0.80;0.80;;;9.70;99.90;;;;;;5027797;28;20219;-64
2023/11/13 05:27:05;;;;;;;0.73;0.73;;;9.90;99.90;;;;;;5049663;28;20199;-63
2023/11/13 05:29:32;;;;;;;0.97;0.80;;;10.00;99.90;;;;;;5045860;28;20589;-63
2023/11/13 05:31:59;;;;;;;0.80;0.80;;;10.00;99.90;;;;;;5050189;28;20238;-63
2023/11/13 05:34:29;;;;;;;1.00;1.00;;;10.00;99.90;;;;;;5033663;28;20296;-63
2023/11/13 05:36:57;;;;;;;1.00;0.90;;;10.00;99.90;;;;;;5051400;28;20202;-63
2023/11/13 05:39:24;;;;;;;0.80;0.80;;;10.00;99.90;;;;;;5050318;28;20546;-64
2023/11/13 05:41:51;;;;;;;1.07;0.97;;;9.90;99.90;;;;;;5046751;28;20246;-64
2023/11/13 05:44:18;;;;;;;1.63;1.23;;;9.90;99.90;;;;;;5050893;28;20220;-64
2023/11/13 05:46:46;;;;;;;1.40;1.30;;;9.80;99.90;;;;;;5047098;28;20207;-64
2023/11/13 05:49:13;;;;;;;0.97;0.97;;;9.80;99.90;;;;;;5051074;28;20191;-64
2023/11/13 05:51:41;;;;;;;1.27;1.17;;;9.80;99.90;;;;;;5051649;28;20203;-64
2023/11/13 05:54:09;;;;;;;0.90;0.90;;;9.80;99.90;;;;;;5050616;28;20271;-64
2023/11/13 05:56:36;;;;;;;1.00;1.00;;;9.80;99.90;;;;;;5050945;28;20698;-64
2023/11/13 05:59:04;;;;;;;0.97;0.97;;;9.90;99.90;;;;;;5033268;28;20204;-64
2023/11/13 06:01:33;;;;;;;1.00;0.90;;;9.90;99.90;;;;;;5050826;28;20232;-64
2023/11/13 06:04:01;;;;;;;2.47;1.00;;;9.90;99.90;;;;;;5050447;28;20280;-64
2023/11/13 06:06:30;;;;;;;2.93;1.10;;;9.90;99.90;;;;;;5033423;28;20203;-64
2023/11/13 06:08:58;;;;;;;1.30;1.20;;;9.90;99.90;;;;;;5049888;28;20205;-64
2023/11/13 06:11:25;;;;;;;1.27;1.10;;;9.80;99.90;;;;;;5050885;28;20197;-64
2023/11/13 06:13:53;;;;;;;1.13;1.03;;;9.80;99.90;;;;;;5050941;28;20667;-64
2023/11/13 06:16:20;;;;;;;1.10;1.00;;;9.80;99.90;;;;;;5050948;28;20195;-63
2023/11/13 06:18:50;;;;;;;1.57;1.30;;;9.80;99.90;;;;;;5047086;28;20190;-63
2023/11/13 06:21:17;;;;;;;1.20;1.10;;;9.80;99.90;;;;;;5041002;28;20210;-63
2023/11/13 06:23:44;;;;;;;2.07;1.40;;;9.90;99.90;;;;;;5029664;28;20229;-64
2023/11/13 06:26:13;;;;;;;1.30;1.20;;;9.80;99.90;;;;;;5029134;28;20199;-63
2023/11/13 06:28:41;;;;;;;1.67;1.30;;;9.90;99.90;;;;;;5051179;28;20272;-63
2023/11/13 06:31:08;;;;;;;2.70;2.10;;;9.90;99.90;;;;;;5049989;28;20222;-65
2023/11/13 06:33:39;;;;;;;2.20;1.90;;;9.90;99.90;;;;;;5050295;28;20222;-63
2023/11/13 06:36:08;;;;;;;2.50;1.90;;;9.80;99.90;;;;;;5050754;28;20643;-63
2023/11/13 06:38:36;;;;;;;3.03;2.10;;;10.50;99.90;;;;;;5049521;28;20189;-63
2023/11/13 06:41:04;;;;;;;2.83;1.80;;;9.90;99.90;;;;;;5049662;28;20205;-64
2023/11/13 06:43:32;;;;;;;2.90;2.27;;;9.90;99.90;;;;;;5032198;28;20198;-64
2023/11/13 06:46:00;;;;;;;2.60;1.90;;;9.90;99.90;;;;;;5049554;28;20654;-62
2023/11/13 06:48:30;;;;;;;2.40;2.07;;;9.90;99.90;;;;;;5049387;28;20198;-64
2023/11/13 06:50:57;;;;;;;3.37;2.57;;;9.90;99.90;;;;;;5048815;28;20677;-64
2023/11/13 06:53:25;;;;;;;3.43;2.40;;;9.90;99.90;;;;;;5049838;28;20652;-64
2023/11/13 06:55:52;;;;;;;3.03;2.13;;;9.80;99.90;;;;;;5049529;28;20200;-64
2023/11/13 06:58:22;;;;;;;2.60;2.10;;;9.80;99.90;;;;;;5050282;28;20212;-64
2023/11/13 07:00:50;;;;;;;4.33;2.80;;;9.80;99.90;;;;;;5050010;28;20200;-64
2023/11/13 07:03:18;;;;;;;3.37;2.30;;;9.80;99.90;;;;;;5045111;28;20225;-63
2023/11/13 07:05:46;;;;;;;6.17;3.10;;;9.80;99.90;;;;;;5035128;28;20259;-64
2023/11/13 07:08:13;;;;;;;5.27;2.70;;;9.70;99.90;;;;;;5035817;28;20702;-64
2023/11/13 07:10:43;;;;;;;6.23;2.70;;;9.80;99.90;;;;;;5026063;28;20629;-64
2023/11/13 07:13:11;;;;;;;2.97;2.40;;;9.80;99.90;;;;;;5042509;28;20294;-64
2023/11/13 07:15:39;;;;;;;2.83;2.20;;;9.80;99.90;;;;;;5043646;28;20543;-64
2023/11/13 07:18:08;;;;;;;2.17;1.97;;;9.80;99.90;;;;;;5045723;28;20205;-64
2023/11/13 07:20:36;;;;;;;3.20;2.20;;;9.80;99.90;;;;;;5044504;28;20202;-64
2023/11/13 07:23:03;;;;;;;2.30;2.10;;;9.80;99.90;;;;;;5031780;28;20579;-62
2023/11/13 07:25:30;;;;;;;3.67;2.50;;;9.80;99.90;;;;;;5034082;28;20217;-62
2023/11/13 07:27:57;;;;;;;3.03;2.50;;;9.80;99.90;;;;;;5044591;28;20199;-62
2023/11/13 07:30:27;;;;;;;1.97;1.77;;;9.80;99.90;;;;;;5047437;28;20573;-63
2023/11/13 07:32:54;;;;;;;4.27;2.60;;;9.90;99.90;;;;;;5043163;28;20293;-64
2023/11/13 07:35:22;;;;;;;2.63;2.13;;;9.90;99.90;;;;;;5047931;28;20566;-65
2023/11/13 07:37:50;;;;;;;3.13;2.10;;;10.00;99.90;;;;;;5042436;28;20241;-64
2023/11/13 07:40:18;;;;;;;2.30;2.10;;;10.00;99.90;;;;;;5047262;28;20603;-64
2023/11/13 07:42:45;;;;;;;2.53;2.03;;;10.00;99.90;;;;;;5044830;28;20371;-64
2023/11/13 07:45:13;;;;;;;2.73;2.17;;;10.00;99.90;;;;;;5047764;28;20715;-64
2023/11/13 07:47:40;;;;;;;1.73;1.60;;;10.00;99.90;;;;;;5045566;28;20577;-62
2023/11/13 07:50:11;;;;;;;2.50;1.57;;;10.00;99.90;;;;;;5049899;28;20204;-63
2023/11/13 07:52:43;;;;;;;1.57;1.43;;;10.10;99.90;;;;;;5042964;28;20609;-64
2023/11/13 07:55:12;;;;;;;1.57;1.40;;;10.20;99.90;;;;;;5051544;28;20235;-63
2023/11/13 07:57:41;;;;;;;1.37;1.20;;;10.20;99.90;;;;;;5046079;28;20251;-63
2023/11/13 08:00:10;;;;;;;3.10;1.57;;;10.30;99.90;;;;;;5051712;28;20597;-63
2023/11/13 08:02:42;;;;;;;2.30;2.00;;;10.30;99.90;;;;;;5041448;28;20696;-63
2023/11/13 08:05:10;;;;;;;2.97;2.07;;;10.30;99.90;;;;;;5046841;28;20206;-63
2023/11/13 08:07:40;;;;;;;2.27;2.07;;;10.30;99.90;;;;;;5045997;28;20214;-64
2023/11/13 08:10:12;;;;;;;2.23;1.77;;;10.30;99.90;;;;;;5050481;28;20201;-62
2023/11/13 08:12:42;;;;;;;1.83;1.70;;;10.30;99.90;;;;;;5049392;28;20188;-64
2023/11/13 08:15:12;;;;;;;2.83;1.77;;;10.30;99.90;;;;;;5031871;28;20282;-63
2023/11/13 08:17:40;;;;;;;1.70;1.60;;;10.40;99.90;;;;;;5048257;28;20201;-64
2023/11/13 08:20:09;;;;;;;2.27;1.83;;;10.40;99.90;;;;;;5043623;28;20276;-63
2023/11/13 08:22:38;;;;;;;1.70;1.60;;;10.40;99.90;;;;;;5048040;28;20629;-64
2023/11/13 08:25:11;;;;;;;2.07;1.87;;;10.50;99.90;;;;;;5051482;28;20295;-64
2023/11/13 08:27:40;;;;;;;2.03;1.70;;;10.50;99.90;;;;;;5046480;28;20194;-64
2023/11/13 08:30:09;;;;;;;2.47;2.27;;;10.50;99.90;;;;;;5051112;28;20213;-64
2023/11/13 08:32:36;;;;;;;2.83;2.40;;;10.50;99.90;;;;;;5025130;28;20226;-64
2023/11/13 08:35:05;;;;;;;2.90;2.10;;;10.40;99.90;;;;;;5051418;28;20368;-64
2023/11/13 08:37:33;;;;;;;3.00;2.30;;;10.40;99.90;;;;;;5029747;28;20197;-64
2023/11/13 08:40:01;;;;;;;2.50;2.30;;;10.40;99.90;;;;;;5051012;28;20200;-64
2023/11/13 08:42:30;;;;;;;2.67;2.00;;;10.40;99.90;;;;;;5032127;28;20208;-63
2023/11/13 08:45:00;;;;;;;2.57;2.10;;;10.40;99.90;;;;;;5048092;28;20222;-63
2023/11/13 08:47:27;;;;;;;2.10;2.00;;;10.40;99.90;;;;;;5048650;28;20268;-63
2023/11/13 08:49:57;;;;;;;3.53;1.87;;;10.50;99.90;;;;;;5050827;28;20968;-62
2023/11/13 08:52:24;;;;;;;2.40;2.10;;;10.50;99.90;;;;;;5033316;28;20343;-63
2023/11/13 08:54:51;;;;;;;1.93;1.83;;;10.60;99.90;;;;;;5051285;28;20194;-64
2023/11/13 08:57:19;;;;;;;3.73;2.70;;;10.60;99.90;;;;;;5048939;28;20198;-64
2023/11/13 08:59:48;;;;;;;3.17;2.80;;;10.60;99.90;;;;;;5049809;28;20206;-64
2023/11/13 09:02:15;;;;;;;2.90;2.43;;;10.60;99.90;;;;;;5044518;28;20682;-64
2023/11/13 09:04:43;;;;;;;2.47;2.27;;;10.60;99.90;;;;;;5029424;28;20206;-64
2023/11/13 09:07:12;;;;;;;2.67;2.40;;;10.70;99.90;;;;;;5040892;28;20241;-63
2023/11/13 09:09:39;;;;;;;4.73;3.70;;;10.60;99.90;;;;;;5049966;28;20226;-63
2023/11/13 09:12:12;;;;;;;3.30;3.00;;;10.60;99.90;;;;;;5041933;28;20580;-64
2023/11/13 09:14:43;;;;;;;2.97;2.73;;;10.60;99.90;;;;;;5043416;28;20188;-64
2023/11/13 09:17:12;;;;;;;2.97;2.47;;;10.60;99.90;;;;;;5040198;28;20663;-63
2023/11/13 09:19:41;;;;;;;2.60;2.40;;;10.60;99.90;;;;;;5049437;28;20191;-63
2023/11/13 09:22:09;;;;;;;2.83;2.50;;;10.60;99.90;;;;;;5042018;28;20198;-63
2023/11/13 09:24:39;;;;;;;3.47;2.50;;;10.50;99.90;;;;;;5049742;28;20213;-63
2023/11/13 09:27:09;;;;;;;2.43;2.23;;;10.50;99.90;;;;;;5044740;28;20279;-63
2023/11/13 09:29:38;;;;;;;2.77;2.50;;;10.50;99.90;;;;;;5049078;28;20186;-63
2023/11/13 09:32:08;;;;;;;2.30;2.10;;;10.50;99.90;;;;;;5042870;28;20616;-64
2023/11/13 09:34:36;;;;;;;4.90;3.20;;;10.60;99.90;;;;;;5049172;28;20186;-65
2023/11/13 09:37:05;;;;;;;2.50;2.30;;;10.60;99.90;;;;;;5043199;28;20570;-64
2023/11/13 09:39:38;;;;;;;2.97;2.50;;;10.60;99.90;;;;;;5046945;28;20192;-63
2023/11/13 09:42:14;;;;;;;2.53;2.23;;;10.60;99.90;;;;;;5043511;28;20571;-64
2023/11/13 09:44:42;;;;;;;3.80;2.80;;;10.50;99.90;;;;;;5049065;28;20205;-64
2023/11/13 09:47:10;;;;;;;3.00;2.73;;;10.50;99.90;;;;;;5045758;28;20212;-64
2023/11/13 09:49:44;;;;;;;2.80;2.60;;;10.50;99.90;;;;;;5048546;28;20344;-64
2023/11/13 09:52:13;;;;;;;2.30;2.10;;;10.50;99.90;;;;;;5047553;28;20617;-64
2023/11/13 09:54:41;;;;;;;2.87;2.67;;;10.50;99.90;;;;;;5049805;28;20208;-64
2023/11/13 09:57:13;;;;;;;4.03;3.57;;;10.50;99.90;;;;;;5047643;28;20226;-64
2023/11/13 09:59:46;;;;;;;4.87;3.50;;;10.60;99.90;;;;;;5049132;28;20217;-64
2023/11/13 10:02:16;;;;;;;4.47;3.13;;;10.60;99.90;;;;;;5045398;28;20218;-63
2023/11/13 10:04:45;;;;;;;3.57;3.03;;;10.50;99.90;;;;;;5049040;28;20288;-63
2023/11/13 10:07:16;;;;;;;4.80;3.30;;;10.60;99.90;;;;;;5040848;28;20198;-64
2023/11/13 10:09:59;;;;;;;4.03;3.50;;;10.40;99.90;;;;;;5047765;28;20270;-64
2023/11/13 10:12:26;;;;;;;4.90;4.00;;;10.40;99.90;;;;;;5043885;28;20539;-63
2023/11/13 10:15:07;;;;;;;3.93;3.20;;;10.30;99.90;;;;;;5049079;28;20189;-64
2023/11/13 10:17:42;;;;;;;4.27;3.63;;;10.40;99.90;;;;;;5040811;28;20194;-64
2023/11/13 10:20:17;;;;;;;3.80;3.20;;;10.40;99.90;;;;;;5048826;28;20194;-64
2023/11/13 10:22:44;;;;;;;3.00;2.70;;;10.40;99.90;;;;;;5044643;28;20252;-63
2023/11/13 10:25:11;;;;;;;2.63;2.43;;;10.40;99.90;;;;;;5049089;28;20213;-63
2023/11/13 10:27:44;;;;;;;3.10;2.80;;;10.40;99.90;;;;;;5040506;28;20300;-64
2023/11/13 10:30:12;;;;;;;4.13;3.03;;;10.50;99.90;;;;;;5048890;28;20194;-64
2023/11/13 10:32:39;;;;;;;4.57;3.60;;;10.50;99.90;;;;;;5044812;28;20197;-64
2023/11/13 10:35:09;;;;;;;2.90;2.70;;;10.40;99.90;;;;;;5049122;28;20193;-63
2023/11/13 10:37:38;;;;;;;3.77;3.30;;;11.70;99.90;;;;;;5027427;28;20210;-63
2023/11/13 10:40:15;;;;;;;3.80;3.40;;;10.40;99.90;;;;;;5048670;28;20208;-63
2023/11/13 10:42:50;;;;;;;3.07;2.77;;;10.40;99.90;;;;;;5044515;28;20196;-63
2023/11/13 10:45:17;;;;;;;3.10;2.80;;;10.40;99.90;;;;;;5048095;28;20698;-63
2023/11/13 10:47:49;;;;;;;4.30;3.50;;;10.40;99.90;;;;;;5027664;28;20565;-64
2023/11/13 10:50:19;;;;;;;3.30;3.00;;;10.40;99.90;;;;;;5047157;28;20232;-64
2023/11/13 10:52:49;;;;;;;3.10;2.90;;;10.30;99.90;;;;;;5046852;28;20790;-64
2023/11/13 10:55:19;;;;;;;3.90;3.20;;;10.40;99.90;;;;;;5048749;28;20231;-64
2023/11/13 10:57:47;;;;;;;4.03;3.60;;;10.40;99.90;;;;;;5023118;28;20205;-64
2023/11/13 11:00:15;;;;;;;3.37;3.07;;;10.30;99.90;;;;;;5029361;28;20233;-63
2023/11/13 11:02:45;;;;;;;3.20;2.90;;;10.30;99.90;;;;;;5028201;28;20240;-63
2023/11/13 11:05:20;;;;;;;3.37;2.77;;;10.30;99.90;;;;;;5030769;28;20220;-62
2023/11/13 11:07:54;;;;;;;3.47;2.97;;;10.30;99.90;;;;;;5038980;28;20205;-65
2023/11/13 11:10:24;;;;;;;2.63;2.43;;;10.30;99.90;;;;;;5042941;28;20680;-63
2023/11/13 11:12:59;;;;;;;2.50;2.30;;;10.30;99.90;;;;;;5046525;28;20193;-63
2023/11/13 11:16:13;;;;;;;3.33;3.03;;;10.30;99.90;;;;;;5048274;28;20185;-64
2023/11/13 11:18:48;;;;;;;2.10;1.90;;;10.20;99.90;;;;;;5043160;28;20290;-64
2023/11/13 11:21:35;;;;;;;2.43;1.83;;;10.20;99.90;;;;;;5047542;28;20200;-64
2023/11/13 11:24:11;;;;;;;2.57;2.30;;;10.20;99.90;;;;;;5048618;28;20209;-64
2023/11/13 11:26:52;;;;;;;3.00;2.23;;;10.30;99.90;;;;;;5042184;28;20204;-64
2023/11/13 11:29:34;;;;;;;2.60;2.40;;;10.30;99.90;;;;;;5050283;28;20206;-64
2023/11/13 11:32:10;;;;;;;2.13;2.00;;;10.30;99.90;;;;;;5047754;28;20196;-64
2023/11/13 11:34:41;;;;;;;2.47;2.27;;;10.40;99.90;;;;;;5049038;28;20270;-64
2023/11/13 11:37:12;;;;;;;2.30;2.10;;;10.40;99.90;;;;;;5050260;28;20228;-63
2023/11/13 11:39:48;;;;;;;2.50;2.30;;;10.50;99.90;;;;;;5051560;28;20193;-64
2023/11/13 11:42:20;;;;;;;3.40;2.40;;;10.50;99.90;;;;;;5050482;28;20200;-64
2023/11/13 11:44:58;;;;;;;2.50;2.27;;;10.50;99.90;;;;;;5049012;28;20201;-64
2023/11/13 11:47:27;;;;;;;2.30;2.10;;;10.60;99.90;;;;;;5026832;28;20647;-63
2023/11/13 11:49:55;;;;;;;2.30;2.10;;;10.60;99.90;;;;;;5047281;28;20255;-64
2023/11/13 11:52:48;;;;;;;3.03;2.10;;;10.60;99.90;;;;;;5031358;28;20338;-64
2023/11/13 11:55:19;;;;;;;2.87;2.60;;;10.70;99.90;;;;;;5047076;28;20204;-63
2023/11/13 11:57:47;;;;;;;3.23;2.70;;;10.70;99.90;;;;;;5033150;28;20266;-64
2023/11/13 12:00:19;;;;;;;2.77;2.57;;;10.80;99.90;;;;;;5051686;28;20201;-64
2023/11/13 12:02:47;;;;;;;2.40;2.20;;;10.80;99.90;;;;;;5050510;28;20677;-64
2023/11/13 12:05:14;;;;;;;2.80;2.33;;;10.80;99.90;;;;;;5051606;28;20340;-64
2023/11/13 12:07:42;;;;;;;2.13;2.03;;;10.90;99.90;;;;;;5046797;28;20221;-64
2023/11/13 12:10:10;;;;;;;2.63;2.33;;;10.90;99.90;;;;;;5045616;28;20267;-63
2023/11/13 12:12:41;;;;;;;2.20;2.07;;;10.90;99.90;;;;;;5049532;28;20188;-64
2023/11/13 12:15:10;;;;;;;2.50;2.30;;;10.90;99.90;;;;;;5048703;28;20193;-63
2023/11/13 12:17:38;;;;;;;2.40;2.13;;;10.90;99.90;;;;;;5032641;28;20217;-63
2023/11/13 12:20:09;;;;;;;2.37;2.17;;;10.90;99.90;;;;;;5048114;28;20730;-63
2023/11/13 12:22:36;;;;;;;2.67;2.47;;;10.90;99.90;;;;;;5043351;28;20191;-63
2023/11/13 12:25:04;;;;;;;2.60;2.40;;;10.90;99.90;;;;;;5031966;28;20202;-63
2023/11/13 12:27:32;;;;;;;2.83;2.60;;;11.00;99.90;;;;;;5050038;28;20640;-63
2023/11/13 12:30:05;;;;;;;2.90;2.60;;;10.90;99.90;;;;;;5047070;28;20238;-64
2023/11/13 12:32:33;;;;;;;2.67;2.40;;;12.90;99.90;;;;;;5042709;28;20606;-64
2023/11/13 12:35:01;;;;;;;3.50;3.07;;;10.90;99.90;;;;;;5046815;28;20225;-63
2023/11/13 12:37:28;;;;;;;3.23;2.70;;;10.90;99.90;;;;;;5042819;28;20217;-63
2023/11/13 12:39:55;;;;;;;2.23;2.03;;;10.90;99.90;;;;;;5050219;28;20197;-64
2023/11/13 12:42:23;;;;;;;3.10;2.60;;;10.90;99.90;;;;;;5045372;28;20752;-63
2023/11/13 12:44:52;;;;;;;3.23;2.80;;;10.90;99.90;;;;;;5046992;28;20189;-63
2023/11/13 12:47:21;;;;;;;3.03;2.70;;;10.90;99.90;;;;;;5048962;28;20297;-63
2023/11/13 12:49:49;;;;;;;2.83;2.20;;;10.90;99.90;;;;;;5047173;28;20248;-63
2023/11/13 12:52:17;;;;;;;2.03;1.93;;;10.90;99.90;;;;;;5042529;28;20243;-64
2023/11/13 12:54:45;;;;;;;3.27;2.97;;;10.90;99.90;;;;;;5043954;28;20194;-64
2023/11/13 12:57:15;;;;;;;2.67;2.47;;;11.00;99.90;;;;;;5049628;28;20194;-64
2023/11/13 12:59:43;;;;;;;2.63;2.43;;;10.90;99.90;;;;;;5048000;28;20668;-64
2023/11/13 13:02:10;;;;;;;4.57;3.20;;;10.90;99.90;;;;;;5048437;28;20197;-64